createdAt,value
2022-09-09T00:00:55.155Z,1.50
2022-09-09T00:04:15.393Z,1.48
2022-09-09T00:07:52.570Z,1.30
2022-09-09T00:11:00.092Z,1.40
2022-09-09T00:14:05.508Z,1.33
2022-09-09T00:17:16.341Z,1.30
2022-09-09T00:20:23.999Z,1.40
2022-09-09T00:23:40.607Z,1.40
2022-09-09T00:26:46.566Z,1.30
2022-09-09T00:30:10.051Z,1.30
2022-09-09T00:33:17.932Z,1.27
2022-09-09T00:36:26.426Z,1.30
2022-09-09T00:39:36.167Z,1.42
2022-09-09T00:43:39.735Z,1.40
2022-09-09T00:47:05.326Z,1.40
2022-09-09T00:50:11.497Z,1.30
2022-09-09T00:53:19.475Z,1.25
2022-09-09T00:56:43.239Z,1.40
2022-09-09T00:59:49.893Z,1.48
2022-09-09T01:03:22.404Z,1.40
2022-09-09T01:06:37.948Z,1.40
2022-09-09T01:09:56.648Z,1.50
2022-09-09T01:13:02.228Z,1.52
2022-09-09T01:16:08.279Z,1.40
2022-09-09T01:19:12.107Z,2.25
2022-09-09T01:22:23.250Z,2.70
2022-09-09T01:26:17.775Z,2.25
2022-09-09T01:29:24.687Z,1.70
2022-09-09T01:32:47.100Z,1.77
2022-09-09T01:36:03.149Z,1.37
2022-09-09T01:39:08.157Z,1.70
2022-09-09T01:42:13.585Z,1.40
2022-09-09T01:45:16.142Z,1.40
2022-09-09T01:48:20.416Z,1.48
2022-09-09T01:51:23.023Z,1.25
2022-09-09T01:54:31.947Z,1.40
2022-09-09T01:57:52.671Z,1.50
2022-09-09T02:01:22.525Z,1.35
2022-09-09T02:04:41.482Z,1.50
2022-09-09T02:07:59.572Z,1.40
2022-09-09T02:11:19.632Z,1.37
2022-09-09T02:14:34.073Z,1.50
2022-09-09T02:17:39.968Z,1.80
2022-09-09T02:20:44.501Z,2.10
2022-09-09T02:23:53.180Z,1.73
2022-09-09T02:26:58.108Z,2.20
2022-09-09T02:30:09.810Z,2.10
2022-09-09T02:33:19.762Z,1.95
2022-09-09T02:36:36.898Z,1.98
2022-09-09T02:39:39.452Z,2.37
2022-09-09T02:42:56.683Z,3.13
2022-09-09T02:46:25.068Z,4.00
2022-09-09T02:49:45.332Z,4.60
2022-09-09T02:52:53.852Z,4.30
2022-09-09T02:55:59.630Z,3.92
2022-09-09T02:59:05.422Z,4.23
2022-09-09T03:02:08.376Z,5.22
2022-09-09T03:05:10.900Z,4.85
2022-09-09T03:08:14.203Z,3.45
2022-09-09T03:11:18.034Z,3.05
2022-09-09T03:22:02.107Z,2.83
2022-09-09T03:25:04.946Z,2.95
2022-09-09T03:28:07.419Z,3.00
2022-09-09T03:31:11.492Z,3.80
2022-09-09T03:34:14.812Z,3.20
2022-09-09T03:37:36.108Z,3.20
2022-09-09T03:40:38.618Z,3.03
2022-09-09T03:43:41.094Z,2.72
2022-09-09T03:46:43.539Z,2.60
2022-09-09T03:49:46.651Z,2.10
2022-09-09T03:52:49.583Z,2.20
2022-09-09T03:55:55.687Z,2.10
2022-09-09T03:59:01.270Z,2.00
2022-09-09T04:02:09.423Z,1.80
2022-09-09T04:05:12.018Z,1.48
2022-09-09T04:08:14.579Z,1.50
2022-09-09T04:11:19.880Z,1.60
2022-09-09T04:14:23.090Z,1.58
2022-09-09T04:17:35.267Z,1.70
2022-09-09T04:20:41.571Z,1.80
2022-09-09T04:23:44.060Z,1.58
2022-09-09T04:26:46.661Z,1.35
2022-09-09T04:29:49.041Z,1.55
2022-09-09T04:32:53.553Z,1.70
2022-09-09T04:36:04.986Z,1.77
2022-09-09T04:39:10.511Z,1.50
2022-09-09T04:42:13.018Z,3.35
2022-09-09T04:45:17.480Z,2.78
2022-09-09T04:48:21.852Z,2.40
2022-09-09T04:51:24.338Z,2.10
2022-09-09T04:54:34.916Z,2.50
2022-09-09T04:57:37.481Z,2.85
2022-09-09T05:00:39.980Z,2.30
2022-09-09T05:03:43.146Z,2.87
2022-09-09T05:06:45.568Z,2.60
2022-09-09T05:09:50.551Z,2.50
2022-09-09T05:12:57.311Z,2.10
2022-09-09T05:15:59.925Z,1.67
2022-09-09T05:19:04.323Z,2.00
2022-09-09T05:22:06.784Z,1.58
2022-09-09T05:25:09.478Z,1.77
2022-09-09T05:28:12.703Z,1.90
2022-09-09T05:31:17.311Z,1.87
2022-09-09T05:34:20.689Z,1.67
2022-09-09T05:37:24.381Z,1.90
2022-09-09T05:40:26.917Z,1.77
2022-09-09T05:43:30.333Z,1.80
2022-09-09T05:46:38.695Z,1.70
2022-09-09T05:49:45.534Z,1.90
2022-09-09T05:52:59.393Z,2.20
2022-09-09T05:56:27.155Z,3.58
2022-09-09T05:59:29.686Z,3.53
2022-09-09T06:02:55.926Z,3.97
2022-09-09T06:06:03.220Z,2.90
2022-09-09T06:09:10.777Z,2.30
2022-09-09T06:12:13.291Z,2.33
2022-09-09T06:15:24.957Z,2.22
2022-09-09T06:18:30.853Z,2.17
2022-09-09T06:21:35.252Z,2.40
2022-09-09T06:24:41.924Z,2.00
2022-09-09T06:27:44.519Z,2.33
2022-09-09T06:30:50.592Z,1.90
2022-09-09T06:34:01.444Z,2.25
2022-09-09T06:37:04.048Z,2.87
2022-09-09T06:40:10.460Z,2.70
2022-09-09T06:43:13.064Z,2.50
2022-09-09T06:46:39.557Z,2.55
2022-09-09T06:49:48.567Z,2.30
2022-09-09T06:53:01.434Z,2.77
2022-09-09T06:56:31.692Z,2.90
2022-09-09T06:59:34.198Z,2.62
2022-09-09T07:09:52.450Z,3.13
2022-09-09T07:13:01.259Z,3.37
2022-09-09T07:16:16.467Z,2.97
2022-09-09T07:19:21.943Z,2.90
2022-09-09T07:22:29.824Z,2.80
2022-09-09T07:25:40.962Z,2.80
2022-09-09T07:28:53.567Z,3.15
2022-09-09T07:32:08.053Z,2.83
2022-09-09T07:35:10.596Z,2.80
2022-09-09T07:38:27.339Z,3.20
2022-09-09T07:41:45.648Z,2.80
2022-09-09T07:44:51.021Z,2.75
2022-09-09T07:47:54.780Z,3.20
2022-09-09T07:51:24.165Z,2.97
2022-09-09T07:54:35.896Z,2.87
2022-09-09T07:57:41.524Z,2.90
2022-09-09T08:00:56.810Z,2.53
2022-09-09T08:04:10.358Z,2.30
2022-09-09T08:07:12.791Z,2.62
2022-09-09T08:10:17.175Z,2.42
2022-09-09T08:13:19.763Z,2.20
2022-09-09T08:16:30.864Z,2.12
2022-09-09T08:19:41.121Z,2.20
2022-09-09T08:22:44.750Z,2.30
2022-09-09T08:25:47.324Z,2.28
2022-09-09T08:28:54.414Z,2.10
2022-09-09T08:32:00.517Z,2.37
2022-09-09T08:35:08.418Z,2.40
2022-09-09T08:38:11.244Z,2.42
2022-09-09T08:41:38.654Z,2.20
2022-09-09T08:45:04.247Z,2.50
2022-09-09T08:48:16.723Z,2.33
2022-09-09T08:59:04.616Z,2.50
2022-09-09T09:06:38.271Z,2.40
2022-09-09T09:10:30.538Z,2.67
2022-09-09T09:13:41.675Z,2.53
2022-09-09T09:17:14.245Z,2.25
2022-09-09T09:20:22.218Z,2.13
2022-09-09T09:42:18.890Z,2.78
2022-09-09T09:45:32.580Z,2.92
2022-09-09T09:48:43.691Z,2.92
2022-09-09T09:51:46.884Z,2.90
2022-09-09T09:54:54.558Z,3.03
2022-09-09T09:58:23.800Z,3.03
2022-09-09T10:01:33.309Z,2.90
2022-09-09T10:04:43.757Z,2.58
2022-09-09T10:11:21.244Z,3.07
2022-09-09T10:14:55.628Z,3.10
2022-09-09T10:18:40.099Z,2.80
2022-09-09T10:21:49.207Z,3.00
2022-09-09T10:25:44.976Z,2.25
2022-09-09T10:28:49.789Z,2.80
2022-09-09T10:32:07.498Z,2.75
2022-09-09T10:35:13.359Z,3.05
2022-09-09T10:38:18.757Z,2.90
2022-09-09T10:41:36.740Z,2.97
2022-09-09T10:44:54.464Z,2.87
2022-09-09T10:48:32.418Z,3.10
2022-09-09T10:51:43.678Z,3.12
2022-09-09T10:54:50.131Z,3.10
2022-09-09T10:57:55.346Z,3.10
2022-09-09T11:01:03.598Z,3.20
2022-09-09T11:04:20.995Z,2.80
2022-09-09T11:07:29.951Z,3.20
2022-09-09T11:10:49.796Z,3.55
2022-09-09T11:14:09.645Z,2.95
2022-09-09T11:17:19.490Z,2.90
2022-09-09T11:20:22.352Z,3.17
2022-09-09T11:23:33.400Z,3.90
2022-09-09T11:26:46.409Z,3.40
2022-09-09T11:30:27.218Z,3.35
2022-09-09T11:33:50.388Z,3.90
2022-09-09T11:36:55.941Z,3.67
2022-09-09T11:40:21.019Z,3.20
2022-09-09T11:43:28.662Z,3.70
2022-09-09T11:46:37.513Z,3.20
2022-09-09T11:49:42.856Z,3.33
2022-09-09T11:52:50.544Z,3.60
2022-09-09T11:56:12.140Z,3.45
2022-09-09T11:59:26.780Z,3.25
2022-09-09T12:02:40.438Z,3.60
2022-09-09T12:05:49.156Z,3.90
2022-09-09T12:08:58.315Z,3.62
2022-09-09T12:12:35.185Z,3.47
2022-09-09T12:15:56.874Z,3.42
2022-09-09T12:19:23.347Z,3.70
2022-09-09T12:22:51.848Z,3.50
2022-09-09T12:26:03.873Z,3.85
2022-09-09T12:29:26.959Z,3.90
2022-09-09T12:32:31.139Z,4.00
2022-09-09T12:35:33.691Z,3.55
2022-09-09T12:38:39.531Z,3.83
2022-09-09T12:41:50.652Z,4.05
2022-09-09T12:45:44.390Z,3.85
2022-09-09T12:48:49.060Z,3.70
2022-09-09T12:51:51.685Z,3.17
2022-09-09T12:54:54.892Z,3.70
2022-09-09T12:57:58.659Z,3.22
2022-09-09T13:01:03.715Z,3.58
2022-09-09T13:04:21.082Z,3.37
2022-09-09T13:07:23.792Z,3.40
2022-09-09T13:10:36.859Z,3.30
2022-09-09T13:13:57.477Z,3.70
2022-09-09T13:17:02.712Z,3.17
2022-09-09T13:20:07.366Z,3.53
2022-09-09T13:23:13.067Z,3.53
2022-09-09T13:26:26.951Z,3.50
2022-09-09T13:29:32.916Z,3.00
2022-09-09T13:32:38.402Z,3.62
2022-09-09T13:35:48.217Z,3.40
2022-09-09T13:38:56.612Z,3.47
2022-09-09T13:42:08.200Z,3.30
2022-09-09T13:45:22.483Z,3.20
2022-09-09T13:48:25.775Z,2.80
2022-09-09T13:51:43.284Z,3.30
2022-09-09T13:54:53.191Z,3.25
2022-09-09T13:58:05.961Z,3.17
2022-09-09T14:01:11.513Z,3.00
2022-09-09T14:04:14.139Z,2.90
2022-09-09T14:07:22.713Z,3.30
2022-09-09T14:10:34.071Z,3.08
2022-09-09T14:13:41.208Z,2.77
2022-09-09T14:16:43.741Z,2.75
2022-09-09T14:20:03.095Z,2.87
2022-09-09T14:23:20.960Z,3.00
2022-09-09T14:26:32.972Z,3.05
2022-09-09T14:29:38.528Z,3.33
2022-09-09T14:32:41.327Z,2.97
2022-09-09T14:35:48.817Z,3.08
2022-09-09T14:38:51.815Z,3.00
2022-09-09T14:42:01.389Z,2.75
2022-09-09T14:45:07.399Z,3.13
2022-09-09T14:48:12.789Z,3.00
2022-09-09T14:51:26.094Z,2.80
2022-09-09T14:54:29.896Z,3.28
2022-09-09T14:57:39.182Z,2.80
2022-09-09T15:00:42.816Z,2.70
2022-09-09T15:03:51.201Z,3.00
2022-09-09T15:07:06.295Z,2.95
2022-09-09T15:10:13.406Z,3.25
2022-09-09T15:13:27.336Z,2.80
2022-09-09T15:16:42.360Z,2.90
2022-09-09T15:19:44.919Z,3.42
2022-09-09T15:22:53.853Z,3.10
2022-09-09T15:26:01.551Z,3.62
2022-09-09T15:29:04.053Z,3.25
2022-09-09T15:32:09.253Z,3.37
2022-09-09T15:35:24.328Z,3.37
2022-09-09T15:38:28.305Z,3.30
2022-09-09T15:41:43.821Z,3.03
2022-09-09T15:44:52.019Z,3.55
2022-09-09T15:47:57.133Z,3.73
2022-09-09T15:51:19.428Z,3.20
2022-09-09T15:54:33.223Z,2.75
2022-09-09T15:57:38.635Z,3.45
2022-09-09T16:00:41.138Z,3.65
2022-09-09T16:03:46.769Z,3.20
2022-09-09T16:06:53.159Z,2.78
2022-09-09T16:10:01.260Z,3.78
2022-09-09T16:13:04.336Z,3.80
2022-09-09T16:16:17.446Z,2.67
2022-09-09T16:19:23.334Z,2.83
2022-09-09T16:22:25.884Z,2.67
2022-09-09T16:25:35.639Z,2.65
2022-09-09T16:28:47.305Z,3.30
2022-09-09T16:31:50.439Z,8.18
2022-09-09T16:34:52.864Z,3.30
2022-09-09T16:37:55.350Z,3.80
2022-09-09T16:41:03.707Z,3.70
2022-09-09T16:44:10.219Z,3.83
2022-09-09T16:47:15.352Z,3.70
2022-09-09T16:53:47.040Z,3.00
2022-09-09T16:56:52.444Z,5.50
2022-09-09T16:59:59.624Z,3.97
2022-09-09T17:03:11.206Z,5.37
2022-09-09T17:06:24.451Z,3.60
2022-09-09T17:09:32.477Z,4.60
2022-09-09T17:12:40.741Z,3.20
2022-09-09T17:15:51.547Z,2.60
2022-09-09T17:18:55.228Z,2.75
2022-09-09T17:22:16.080Z,2.97
2022-09-09T17:25:19.466Z,2.85
2022-09-09T17:28:28.467Z,2.78
2022-09-09T17:31:41.566Z,2.40
2022-09-09T17:34:47.063Z,2.70
2022-09-09T17:37:50.035Z,2.80
2022-09-09T17:41:09.034Z,2.70
2022-09-09T17:44:12.224Z,2.62
2022-09-09T17:47:14.806Z,2.90
2022-09-09T17:50:17.585Z,2.70
2022-09-09T17:53:23.967Z,4.90
2022-09-09T17:56:37.345Z,2.37
2022-09-09T17:59:40.012Z,3.10
2022-09-09T18:02:43.139Z,2.92
2022-09-09T18:05:45.828Z,3.10
2022-09-09T18:08:54.681Z,3.50
2022-09-09T18:11:58.824Z,2.92
2022-09-09T18:15:04.071Z,2.42
2022-09-09T18:18:07.191Z,2.25
2022-09-09T18:21:09.669Z,2.75
2022-09-09T18:24:14.210Z,3.87
2022-09-09T18:27:16.917Z,2.40
2022-09-09T18:30:20.256Z,1.90
2022-09-09T18:33:22.707Z,2.20
2022-09-09T18:36:34.249Z,2.37
2022-09-09T18:39:36.951Z,2.40
2022-09-09T18:42:39.585Z,2.03
2022-09-09T18:45:42.027Z,2.20
2022-09-09T18:48:46.146Z,2.35
2022-09-09T18:51:48.971Z,2.05
2022-09-09T18:54:51.480Z,2.00
2022-09-09T18:57:55.412Z,2.10
2022-09-09T19:00:58.563Z,2.37
2022-09-09T19:04:01.715Z,2.35
2022-09-09T19:07:04.650Z,2.53
2022-09-09T19:10:08.348Z,2.50
2022-09-09T19:13:11.109Z,2.20
2022-09-09T19:16:15.200Z,2.40
2022-09-09T19:19:20.447Z,2.10
2022-09-09T19:22:23.348Z,2.60
2022-09-09T19:25:26.531Z,2.67
2022-09-09T19:28:29.034Z,2.53
2022-09-09T19:31:31.768Z,2.53
2022-09-09T19:34:34.377Z,2.30
2022-09-09T19:37:37.204Z,2.40
2022-09-09T19:40:40.506Z,2.67
2022-09-09T19:43:43.147Z,3.00
2022-09-09T19:46:47.423Z,2.30
2022-09-09T19:49:51.624Z,2.17
2022-09-09T19:52:54.886Z,2.20
2022-09-09T19:55:57.426Z,2.30
2022-09-09T19:59:00.284Z,1.95
2022-09-09T20:02:03.163Z,2.60
2022-09-09T20:05:07.087Z,2.50
2022-09-09T20:08:09.809Z,2.40
2022-09-09T20:11:13.378Z,2.00
2022-09-09T20:14:17.200Z,2.25
2022-09-09T20:17:19.852Z,2.60
2022-09-09T20:20:22.507Z,2.30
2022-09-09T20:23:25.096Z,2.72
2022-09-09T20:26:33.627Z,1.90
2022-09-09T20:29:37.388Z,2.30
2022-09-09T20:32:39.829Z,2.42
2022-09-09T20:35:42.339Z,2.47
2022-09-09T20:38:51.607Z,6.85
2022-09-09T20:41:53.999Z,2.50
2022-09-09T20:44:56.449Z,2.40
2022-09-09T20:47:59.008Z,2.30
2022-09-09T20:51:09.955Z,2.15
2022-09-09T20:54:15.931Z,2.20
2022-09-09T20:57:22.183Z,2.83
2022-09-09T21:00:24.747Z,2.10
2022-09-09T21:03:32.230Z,2.20
2022-09-09T21:06:34.692Z,2.05
2022-09-09T21:09:37.205Z,2.22
2022-09-09T21:12:39.679Z,2.00
2022-09-09T21:15:45.071Z,1.95
2022-09-09T21:18:48.871Z,3.12
2022-09-09T21:21:51.431Z,1.98
2022-09-09T21:24:53.951Z,2.12
2022-09-09T21:27:56.403Z,2.10
2022-09-09T21:30:59.277Z,2.42
2022-09-09T21:34:01.790Z,2.08
2022-09-09T21:37:04.290Z,2.20
2022-09-09T21:40:07.945Z,2.22
2022-09-09T21:43:13.432Z,2.50
2022-09-09T21:46:16.915Z,2.55
2022-09-09T21:49:19.448Z,2.80
2022-09-09T21:52:21.849Z,2.95
2022-09-09T21:55:24.320Z,2.60
2022-09-09T21:58:26.948Z,3.10
2022-09-09T22:01:33.157Z,3.00
2022-09-09T22:04:37.383Z,3.10
2022-09-09T22:07:40.282Z,3.55
2022-09-09T22:10:47.598Z,3.75
2022-09-09T22:13:50.827Z,3.20
2022-09-09T22:16:53.944Z,3.10
2022-09-09T22:19:56.438Z,4.10
2022-09-09T22:23:00.197Z,3.65
2022-09-09T22:26:02.836Z,3.33
2022-09-09T22:29:06.468Z,3.30
2022-09-09T22:32:10.167Z,2.83
2022-09-09T22:35:13.018Z,2.97
2022-09-09T22:38:15.554Z,3.12
2022-09-09T22:41:18.949Z,3.25
2022-09-09T22:44:23.080Z,3.00
2022-09-09T22:47:25.516Z,3.12
2022-09-09T22:50:28.577Z,2.70
2022-09-09T22:53:34.414Z,2.78
2022-09-09T22:56:36.945Z,2.50
2022-09-09T22:59:39.331Z,2.73
2022-09-09T23:02:42.011Z,2.55
2022-09-09T23:05:53.780Z,2.55
2022-09-09T23:09:01.718Z,2.67
2022-09-09T23:12:04.719Z,2.80
2022-09-09T23:15:10.555Z,3.63
2022-09-09T23:18:14.759Z,2.95
2022-09-09T23:21:17.704Z,3.28
2022-09-09T23:24:20.094Z,3.00
2022-09-09T23:27:22.737Z,2.75
2022-09-09T23:30:25.570Z,3.10
2022-09-09T23:33:28.305Z,3.22
2022-09-09T23:36:31.098Z,3.80
2022-09-09T23:39:33.627Z,3.97
2022-09-09T23:42:36.149Z,3.83
2022-09-09T23:45:38.681Z,3.50
2022-09-09T23:48:41.543Z,3.83
2022-09-09T23:51:44.102Z,4.20
2022-09-09T23:54:46.666Z,4.30
2022-09-09T23:57:49.081Z,4.30
